sensor_id;sensor_type;location;lat;lon;timestamp;P1;durP1;ratioP1;P2;durP2;ratioP2
72388;SDS011;60566;48.062;9.930;2023-05-29T00:00:11;11.90;;;5.95;;
72388;SDS011;60566;48.062;9.930;2023-05-29T00:02:37;15.07;;;6.20;;
72388;SDS011;60566;48.062;9.930;2023-05-29T00:05:03;14.23;;;5.95;;
72388;SDS011;60566;48.062;9.930;2023-05-29T00:07:30;12.93;;;6.22;;
72388;SDS011;60566;48.062;9.930;2023-05-29T00:09:55;14.15;;;5.65;;
72388;SDS011;60566;48.062;9.930;2023-05-29T00:12:21;13.57;;;5.78;;
72388;SDS011;60566;48.062;9.930;2023-05-29T00:14:46;11.93;;;5.20;;
72388;SDS011;60566;48.062;9.930;2023-05-29T00:17:12;11.13;;;5.05;;
72388;SDS011;60566;48.062;9.930;2023-05-29T00:19:37;11.27;;;4.93;;
72388;SDS011;60566;48.062;9.930;2023-05-29T00:22:02;12.48;;;4.95;;
72388;SDS011;60566;48.062;9.930;2023-05-29T00:24:29;13.52;;;5.38;;
72388;SDS011;60566;48.062;9.930;2023-05-29T00:26:55;12.48;;;5.65;;
72388;SDS011;60566;48.062;9.930;2023-05-29T00:29:20;12.88;;;5.50;;
72388;SDS011;60566;48.062;9.930;2023-05-29T00:31:45;12.52;;;5.13;;
72388;SDS011;60566;48.062;9.930;2023-05-29T00:34:11;12.90;;;5.90;;
72388;SDS011;60566;48.062;9.930;2023-05-29T00:36:36;12.30;;;5.47;;
72388;SDS011;60566;48.062;9.930;2023-05-29T00:39:02;11.05;;;5.30;;
72388;SDS011;60566;48.062;9.930;2023-05-29T00:41:29;12.52;;;5.50;;
72388;SDS011;60566;48.062;9.930;2023-05-29T00:43:54;11.55;;;5.20;;
72388;SDS011;60566;48.062;9.930;2023-05-29T00:46:20;15.05;;;5.20;;
72388;SDS011;60566;48.062;9.930;2023-05-29T00:48:45;14.38;;;6.10;;
72388;SDS011;60566;48.062;9.930;2023-05-29T00:51:10;15.13;;;6.05;;
72388;SDS011;60566;48.062;9.930;2023-05-29T00:53:37;12.70;;;5.68;;
72388;SDS011;60566;48.062;9.930;2023-05-29T00:56:03;12.63;;;4.82;;
72388;SDS011;60566;48.062;9.930;2023-05-29T00:58:30;14.35;;;5.38;;
72388;SDS011;60566;48.062;9.930;2023-05-29T01:00:56;10.23;;;4.95;;
72388;SDS011;60566;48.062;9.930;2023-05-29T01:03:21;12.43;;;5.32;;
72388;SDS011;60566;48.062;9.930;2023-05-29T01:05:47;11.95;;;5.72;;
72388;SDS011;60566;48.062;9.930;2023-05-29T01:08:12;11.70;;;4.95;;
72388;SDS011;60566;48.062;9.930;2023-05-29T01:10:37;11.98;;;5.38;;
72388;SDS011;60566;48.062;9.930;2023-05-29T01:13:04;12.20;;;5.55;;
72388;SDS011;60566;48.062;9.930;2023-05-29T01:15:35;10.55;;;4.97;;
72388;SDS011;60566;48.062;9.930;2023-05-29T01:18:08;12.60;;;4.88;;
72388;SDS011;60566;48.062;9.930;2023-05-29T01:20:40;16.20;;;5.40;;
72388;SDS011;60566;48.062;9.930;2023-05-29T01:23:14;12.88;;;5.25;;
72388;SDS011;60566;48.062;9.930;2023-05-29T01:28:23;11.27;;;4.72;;
72388;SDS011;60566;48.062;9.930;2023-05-29T01:30:51;12.02;;;4.68;;
72388;SDS011;60566;48.062;9.930;2023-05-29T01:33:17;13.98;;;5.38;;
72388;SDS011;60566;48.062;9.930;2023-05-29T01:35:42;13.25;;;5.43;;
72388;SDS011;60566;48.062;9.930;2023-05-29T01:38:07;10.60;;;4.95;;
72388;SDS011;60566;48.062;9.930;2023-05-29T01:40:33;13.93;;;5.47;;
72388;SDS011;60566;48.062;9.930;2023-05-29T01:42:58;11.18;;;4.97;;
72388;SDS011;60566;48.062;9.930;2023-05-29T01:45:25;10.65;;;5.22;;
72388;SDS011;60566;48.062;9.930;2023-05-29T01:47:51;10.70;;;5.03;;
72388;SDS011;60566;48.062;9.930;2023-05-29T01:50:17;12.35;;;5.57;;
72388;SDS011;60566;48.062;9.930;2023-05-29T01:52:43;10.18;;;5.13;;
72388;SDS011;60566;48.062;9.930;2023-05-29T01:55:09;10.75;;;5.40;;
72388;SDS011;60566;48.062;9.930;2023-05-29T01:57:34;13.10;;;5.50;;
72388;SDS011;60566;48.062;9.930;2023-05-29T02:00:00;12.18;;;5.43;;
72388;SDS011;60566;48.062;9.930;2023-05-29T02:02:28;10.82;;;5.30;;
72388;SDS011;60566;48.062;9.930;2023-05-29T02:04:53;15.52;;;6.45;;
72388;SDS011;60566;48.062;9.930;2023-05-29T02:07:19;12.52;;;5.07;;
72388;SDS011;60566;48.062;9.930;2023-05-29T02:09:44;12.02;;;5.80;;
72388;SDS011;60566;48.062;9.930;2023-05-29T02:12:10;13.60;;;5.35;;
72388;SDS011;60566;48.062;9.930;2023-05-29T02:14:35;13.43;;;5.70;;
72388;SDS011;60566;48.062;9.930;2023-05-29T02:17:00;12.82;;;5.93;;
72388;SDS011;60566;48.062;9.930;2023-05-29T02:19:27;12.60;;;5.68;;
72388;SDS011;60566;48.062;9.930;2023-05-29T02:21:53;12.95;;;5.43;;
72388;SDS011;60566;48.062;9.930;2023-05-29T02:24:18;12.32;;;5.57;;
72388;SDS011;60566;48.062;9.930;2023-05-29T02:26:43;15.98;;;5.88;;
72388;SDS011;60566;48.062;9.930;2023-05-29T02:29:09;14.70;;;6.60;;
72388;SDS011;60566;48.062;9.930;2023-05-29T02:31:34;13.50;;;6.10;;
72388;SDS011;60566;48.062;9.930;2023-05-29T02:33:59;15.63;;;6.32;;
72388;SDS011;60566;48.062;9.930;2023-05-29T02:36:26;15.48;;;5.90;;
72388;SDS011;60566;48.062;9.930;2023-05-29T02:38:51;13.30;;;5.82;;
72388;SDS011;60566;48.062;9.930;2023-05-29T02:41:17;16.27;;;6.53;;
72388;SDS011;60566;48.062;9.930;2023-05-29T02:43:42;12.48;;;6.00;;
72388;SDS011;60566;48.062;9.930;2023-05-29T02:46:08;12.35;;;5.43;;
72388;SDS011;60566;48.062;9.930;2023-05-29T02:48:33;12.82;;;5.85;;
72388;SDS011;60566;48.062;9.930;2023-05-29T02:50:58;15.98;;;6.63;;
72388;SDS011;60566;48.062;9.930;2023-05-29T02:53:25;14.50;;;5.85;;
72388;SDS011;60566;48.062;9.930;2023-05-29T02:55:50;12.68;;;5.85;;
72388;SDS011;60566;48.062;9.930;2023-05-29T02:58:16;14.13;;;6.70;;
72388;SDS011;60566;48.062;9.930;2023-05-29T03:00:41;14.07;;;6.53;;
72388;SDS011;60566;48.062;9.930;2023-05-29T03:03:07;14.35;;;6.75;;
72388;SDS011;60566;48.062;9.930;2023-05-29T03:05:32;13.52;;;5.60;;
72388;SDS011;60566;48.062;9.930;2023-05-29T03:07:57;14.40;;;6.28;;
72388;SDS011;60566;48.062;9.930;2023-05-29T03:10:24;12.55;;;5.65;;
72388;SDS011;60566;48.062;9.930;2023-05-29T03:12:50;14.10;;;6.65;;
72388;SDS011;60566;48.062;9.930;2023-05-29T03:15:15;14.82;;;5.80;;
72388;SDS011;60566;48.062;9.930;2023-05-29T03:17:40;17.48;;;6.30;;
72388;SDS011;60566;48.062;9.930;2023-05-29T03:20:06;16.33;;;6.03;;
72388;SDS011;60566;48.062;9.930;2023-05-29T03:22:32;14.35;;;6.18;;
72388;SDS011;60566;48.062;9.930;2023-05-29T03:24:57;14.93;;;7.50;;
72388;SDS011;60566;48.062;9.930;2023-05-29T03:27:25;16.67;;;6.68;;
72388;SDS011;60566;48.062;9.930;2023-05-29T03:29:50;15.57;;;6.63;;
72388;SDS011;60566;48.062;9.930;2023-05-29T03:32:16;12.48;;;6.03;;
72388;SDS011;60566;48.062;9.930;2023-05-29T03:34:41;13.00;;;6.00;;
72388;SDS011;60566;48.062;9.930;2023-05-29T03:37:06;14.60;;;5.85;;
72388;SDS011;60566;48.062;9.930;2023-05-29T03:39:32;14.60;;;6.80;;
72388;SDS011;60566;48.062;9.930;2023-05-29T03:41:57;14.77;;;5.93;;
72388;SDS011;60566;48.062;9.930;2023-05-29T03:44:24;14.50;;;6.45;;
72388;SDS011;60566;48.062;9.930;2023-05-29T03:46:49;14.93;;;6.60;;
72388;SDS011;60566;48.062;9.930;2023-05-29T03:49:15;14.90;;;6.88;;
72388;SDS011;60566;48.062;9.930;2023-05-29T03:51:41;13.40;;;6.40;;
72388;SDS011;60566;48.062;9.930;2023-05-29T03:54:06;14.18;;;6.63;;
72388;SDS011;60566;48.062;9.930;2023-05-29T03:56:32;14.20;;;7.00;;
72388;SDS011;60566;48.062;9.930;2023-05-29T03:58:57;14.10;;;6.80;;
72388;SDS011;60566;48.062;9.930;2023-05-29T04:01:24;16.42;;;5.90;;
72388;SDS011;60566;48.062;9.930;2023-05-29T04:03:49;12.48;;;6.53;;
72388;SDS011;60566;48.062;9.930;2023-05-29T04:06:14;13.90;;;5.95;;
72388;SDS011;60566;48.062;9.930;2023-05-29T04:08:40;14.32;;;6.03;;
72388;SDS011;60566;48.062;9.930;2023-05-29T04:11:05;14.38;;;6.60;;
72388;SDS011;60566;48.062;9.930;2023-05-29T04:13:31;14.27;;;6.65;;
72388;SDS011;60566;48.062;9.930;2023-05-29T04:15:56;16.38;;;6.22;;
72388;SDS011;60566;48.062;9.930;2023-05-29T04:18:23;14.05;;;6.38;;
72388;SDS011;60566;48.062;9.930;2023-05-29T04:20:48;15.02;;;6.85;;
72388;SDS011;60566;48.062;9.930;2023-05-29T04:23:13;13.52;;;6.22;;
72388;SDS011;60566;48.062;9.930;2023-05-29T04:25:39;16.52;;;6.45;;
72388;SDS011;60566;48.062;9.930;2023-05-29T04:28:04;13.88;;;5.78;;
72388;SDS011;60566;48.062;9.930;2023-05-29T04:30:30;13.13;;;5.88;;
72388;SDS011;60566;48.062;9.930;2023-05-29T04:32:55;15.10;;;7.53;;
72388;SDS011;60566;48.062;9.930;2023-05-29T04:35:22;15.07;;;5.70;;
72388;SDS011;60566;48.062;9.930;2023-05-29T04:37:47;16.27;;;6.10;;
72388;SDS011;60566;48.062;9.930;2023-05-29T04:40:12;14.13;;;5.63;;
72388;SDS011;60566;48.062;9.930;2023-05-29T04:42:38;11.82;;;5.47;;
72388;SDS011;60566;48.062;9.930;2023-05-29T04:45:04;13.27;;;5.82;;
72388;SDS011;60566;48.062;9.930;2023-05-29T04:47:30;15.27;;;5.97;;
72388;SDS011;60566;48.062;9.930;2023-05-29T04:49:55;12.35;;;6.00;;
72388;SDS011;60566;48.062;9.930;2023-05-29T04:52:22;11.48;;;5.90;;
72388;SDS011;60566;48.062;9.930;2023-05-29T04:54:47;14.80;;;6.47;;
72388;SDS011;60566;48.062;9.930;2023-05-29T04:57:13;12.15;;;5.65;;
72388;SDS011;60566;48.062;9.930;2023-05-29T04:59:38;13.77;;;6.53;;
72388;SDS011;60566;48.062;9.930;2023-05-29T05:02:04;16.25;;;6.32;;
72388;SDS011;60566;48.062;9.930;2023-05-29T05:04:29;13.32;;;5.50;;
72388;SDS011;60566;48.062;9.930;2023-05-29T05:06:55;12.95;;;5.25;;
72388;SDS011;60566;48.062;9.930;2023-05-29T05:09:21;13.13;;;5.53;;
72388;SDS011;60566;48.062;9.930;2023-05-29T05:11:47;15.45;;;6.00;;
72388;SDS011;60566;48.062;9.930;2023-05-29T05:14:12;10.63;;;5.57;;
72388;SDS011;60566;48.062;9.930;2023-05-29T05:16:38;11.93;;;5.40;;
72388;SDS011;60566;48.062;9.930;2023-05-29T05:19:03;15.63;;;5.85;;
72388;SDS011;60566;48.062;9.930;2023-05-29T05:21:28;15.60;;;6.07;;
72388;SDS011;60566;48.062;9.930;2023-05-29T05:23:54;14.10;;;5.53;;
72388;SDS011;60566;48.062;9.930;2023-05-29T05:26:20;13.80;;;6.05;;
72388;SDS011;60566;48.062;9.930;2023-05-29T05:28:46;12.40;;;6.32;;
72388;SDS011;60566;48.062;9.930;2023-05-29T05:31:11;12.38;;;5.43;;
72388;SDS011;60566;48.062;9.930;2023-05-29T05:33:36;14.57;;;6.13;;
72388;SDS011;60566;48.062;9.930;2023-05-29T05:36:02;12.52;;;6.50;;
72388;SDS011;60566;48.062;9.930;2023-05-29T05:38:27;12.18;;;5.80;;
72388;SDS011;60566;48.062;9.930;2023-05-29T05:40:52;12.68;;;5.22;;
72388;SDS011;60566;48.062;9.930;2023-05-29T05:43:19;11.63;;;5.15;;
72388;SDS011;60566;48.062;9.930;2023-05-29T05:45:46;13.63;;;5.60;;
72388;SDS011;60566;48.062;9.930;2023-05-29T05:48:11;13.50;;;5.85;;
72388;SDS011;60566;48.062;9.930;2023-05-29T05:50:37;13.15;;;5.93;;
72388;SDS011;60566;48.062;9.930;2023-05-29T05:53:02;15.40;;;5.80;;
72388;SDS011;60566;48.062;9.930;2023-05-29T05:55:28;12.98;;;6.10;;
72388;SDS011;60566;48.062;9.930;2023-05-29T05:57:53;14.20;;;5.72;;
72388;SDS011;60566;48.062;9.930;2023-05-29T06:00:20;13.60;;;5.97;;
72388;SDS011;60566;48.062;9.930;2023-05-29T06:02:46;15.00;;;5.97;;
72388;SDS011;60566;48.062;9.930;2023-05-29T06:05:11;13.73;;;5.80;;
72388;SDS011;60566;48.062;9.930;2023-05-29T06:07:37;13.32;;;5.57;;
72388;SDS011;60566;48.062;9.930;2023-05-29T06:10:02;15.55;;;5.90;;
72388;SDS011;60566;48.062;9.930;2023-05-29T06:12:28;14.80;;;6.22;;
72388;SDS011;60566;48.062;9.930;2023-05-29T06:14:53;16.75;;;6.65;;
72388;SDS011;60566;48.062;9.930;2023-05-29T06:17:20;15.48;;;5.82;;
72388;SDS011;60566;48.062;9.930;2023-05-29T06:19:45;11.43;;;5.60;;
72388;SDS011;60566;48.062;9.930;2023-05-29T06:22:11;11.23;;;5.93;;
72388;SDS011;60566;48.062;9.930;2023-05-29T06:24:36;13.60;;;5.43;;
72388;SDS011;60566;48.062;9.930;2023-05-29T06:27:02;12.52;;;6.18;;
72388;SDS011;60566;48.062;9.930;2023-05-29T06:29:27;9.25;;;4.97;;
72388;SDS011;60566;48.062;9.930;2023-05-29T06:31:52;12.65;;;6.07;;
72388;SDS011;60566;48.062;9.930;2023-05-29T06:34:19;12.88;;;6.25;;
72388;SDS011;60566;48.062;9.930;2023-05-29T06:36:44;14.18;;;6.28;;
72388;SDS011;60566;48.062;9.930;2023-05-29T06:39:10;13.52;;;5.88;;
72388;SDS011;60566;48.062;9.930;2023-05-29T06:41:35;11.63;;;5.50;;
72388;SDS011;60566;48.062;9.930;2023-05-29T06:44:01;14.10;;;5.95;;
72388;SDS011;60566;48.062;9.930;2023-05-29T06:46:26;12.90;;;5.30;;
72388;SDS011;60566;48.062;9.930;2023-05-29T06:48:51;15.32;;;6.38;;
72388;SDS011;60566;48.062;9.930;2023-05-29T06:51:18;11.70;;;5.55;;
72388;SDS011;60566;48.062;9.930;2023-05-29T06:53:43;12.45;;;6.10;;
72388;SDS011;60566;48.062;9.930;2023-05-29T06:56:09;14.80;;;5.75;;
72388;SDS011;60566;48.062;9.930;2023-05-29T06:58:34;11.93;;;5.75;;
72388;SDS011;60566;48.062;9.930;2023-05-29T07:01:00;15.82;;;6.53;;
72388;SDS011;60566;48.062;9.930;2023-05-29T07:03:25;13.95;;;6.43;;
72388;SDS011;60566;48.062;9.930;2023-05-29T07:05:51;13.80;;;6.30;;
72388;SDS011;60566;48.062;9.930;2023-05-29T07:08:17;14.43;;;6.00;;
72388;SDS011;60566;48.062;9.930;2023-05-29T07:10:43;19.20;;;6.22;;
72388;SDS011;60566;48.062;9.930;2023-05-29T07:13:08;14.73;;;6.28;;
72388;SDS011;60566;48.062;9.930;2023-05-29T07:15:33;16.55;;;6.28;;
72388;SDS011;60566;48.062;9.930;2023-05-29T07:17:59;11.55;;;6.10;;
72388;SDS011;60566;48.062;9.930;2023-05-29T07:20:24;14.82;;;5.68;;
72388;SDS011;60566;48.062;9.930;2023-05-29T07:22:50;12.43;;;6.05;;
72388;SDS011;60566;48.062;9.930;2023-05-29T07:25:16;11.85;;;5.60;;
72388;SDS011;60566;48.062;9.930;2023-05-29T07:27:42;14.32;;;5.43;;
72388;SDS011;60566;48.062;9.930;2023-05-29T07:30:07;10.20;;;5.22;;
72388;SDS011;60566;48.062;9.930;2023-05-29T07:32:33;11.98;;;5.47;;
72388;SDS011;60566;48.062;9.930;2023-05-29T07:34:58;13.15;;;5.53;;
72388;SDS011;60566;48.062;9.930;2023-05-29T07:37:24;12.25;;;5.85;;
72388;SDS011;60566;48.062;9.930;2023-05-29T07:39:49;11.43;;;5.43;;
72388;SDS011;60566;48.062;9.930;2023-05-29T07:42:16;14.13;;;5.65;;
72388;SDS011;60566;48.062;9.930;2023-05-29T07:44:41;12.15;;;5.35;;
72388;SDS011;60566;48.062;9.930;2023-05-29T07:47:07;11.80;;;5.53;;
72388;SDS011;60566;48.062;9.930;2023-05-29T07:49:32;10.85;;;5.07;;
72388;SDS011;60566;48.062;9.930;2023-05-29T07:51:58;12.32;;;4.78;;
72388;SDS011;60566;48.062;9.930;2023-05-29T07:54:23;12.18;;;5.45;;
72388;SDS011;60566;48.062;9.930;2023-05-29T07:56:49;13.43;;;5.72;;
72388;SDS011;60566;48.062;9.930;2023-05-29T07:59:15;10.35;;;5.00;;
72388;SDS011;60566;48.062;9.930;2023-05-29T08:01:41;14.40;;;5.82;;
72388;SDS011;60566;48.062;9.930;2023-05-29T08:04:06;12.55;;;5.28;;
72388;SDS011;60566;48.062;9.930;2023-05-29T08:06:31;11.65;;;5.60;;
72388;SDS011;60566;48.062;9.930;2023-05-29T08:08:57;12.88;;;6.40;;
72388;SDS011;60566;48.062;9.930;2023-05-29T08:11:22;10.93;;;5.60;;
72388;SDS011;60566;48.062;9.930;2023-05-29T08:13:48;11.27;;;5.10;;
72388;SDS011;60566;48.062;9.930;2023-05-29T08:16:14;12.00;;;5.10;;
72388;SDS011;60566;48.062;9.930;2023-05-29T08:18:40;11.63;;;4.85;;
72388;SDS011;60566;48.062;9.930;2023-05-29T08:21:05;11.57;;;5.82;;
72388;SDS011;60566;48.062;9.930;2023-05-29T08:23:30;13.45;;;5.78;;
72388;SDS011;60566;48.062;9.930;2023-05-29T08:25:56;12.57;;;5.53;;
72388;SDS011;60566;48.062;9.930;2023-05-29T08:28:21;11.48;;;5.53;;
72388;SDS011;60566;48.062;9.930;2023-05-29T08:30:47;12.60;;;5.90;;
72388;SDS011;60566;48.062;9.930;2023-05-29T08:33:13;10.52;;;5.00;;
72388;SDS011;60566;48.062;9.930;2023-05-29T08:35:39;11.77;;;5.53;;
72388;SDS011;60566;48.062;9.930;2023-05-29T08:38:04;10.38;;;5.30;;
72388;SDS011;60566;48.062;9.930;2023-05-29T08:40:29;11.13;;;4.85;;
72388;SDS011;60566;48.062;9.930;2023-05-29T08:42:56;10.55;;;4.90;;
72388;SDS011;60566;48.062;9.930;2023-05-29T08:45:23;10.50;;;5.50;;
72388;SDS011;60566;48.062;9.930;2023-05-29T08:47:49;10.65;;;4.60;;
72388;SDS011;60566;48.062;9.930;2023-05-29T08:50:18;10.32;;;5.10;;
72388;SDS011;60566;48.062;9.930;2023-05-29T08:52:44;10.75;;;4.82;;
72388;SDS011;60566;48.062;9.930;2023-05-29T08:55:10;11.75;;;6.07;;
72388;SDS011;60566;48.062;9.930;2023-05-29T08:57:35;9.68;;;4.70;;
72388;SDS011;60566;48.062;9.930;2023-05-29T09:00:01;11.65;;;5.25;;
72388;SDS011;60566;48.062;9.930;2023-05-29T09:02:27;11.18;;;5.43;;
72388;SDS011;60566;48.062;9.930;2023-05-29T09:04:52;9.88;;;4.72;;
72388;SDS011;60566;48.062;9.930;2023-05-29T09:07:19;10.52;;;4.72;;
72388;SDS011;60566;48.062;9.930;2023-05-29T09:09:45;10.45;;;4.78;;
72388;SDS011;60566;48.062;9.930;2023-05-29T09:12:10;9.07;;;4.63;;
72388;SDS011;60566;48.062;9.930;2023-05-29T09:14:36;11.40;;;4.80;;
72388;SDS011;60566;48.062;9.930;2023-05-29T09:17:02;10.77;;;4.22;;
72388;SDS011;60566;48.062;9.930;2023-05-29T09:19:28;9.02;;;4.05;;
72388;SDS011;60566;48.062;9.930;2023-05-29T09:21:59;9.38;;;4.47;;
72388;SDS011;60566;48.062;9.930;2023-05-29T09:24:26;11.65;;;4.38;;
72388;SDS011;60566;48.062;9.930;2023-05-29T09:26:52;11.93;;;4.78;;
72388;SDS011;60566;48.062;9.930;2023-05-29T09:29:17;8.50;;;4.32;;
72388;SDS011;60566;48.062;9.930;2023-05-29T09:31:45;8.13;;;4.30;;
72388;SDS011;60566;48.062;9.930;2023-05-29T09:34:11;11.30;;;4.43;;
72388;SDS011;60566;48.062;9.930;2023-05-29T09:36:37;9.30;;;4.68;;
72388;SDS011;60566;48.062;9.930;2023-05-29T09:39:03;14.13;;;4.32;;
72388;SDS011;60566;48.062;9.930;2023-05-29T09:41:30;9.95;;;4.47;;
72388;SDS011;60566;48.062;9.930;2023-05-29T09:43:55;8.85;;;4.25;;
72388;SDS011;60566;48.062;9.930;2023-05-29T09:46:21;11.93;;;4.68;;
72388;SDS011;60566;48.062;9.930;2023-05-29T09:48:46;8.68;;;4.53;;
72388;SDS011;60566;48.062;9.930;2023-05-29T09:51:18;9.60;;;3.92;;
72388;SDS011;60566;48.062;9.930;2023-05-29T09:53:45;8.93;;;3.53;;
72388;SDS011;60566;48.062;9.930;2023-05-29T09:56:10;8.55;;;3.70;;
72388;SDS011;60566;48.062;9.930;2023-05-29T09:58:37;12.95;;;4.68;;
72388;SDS011;60566;48.062;9.930;2023-05-29T10:01:03;8.27;;;4.30;;
72388;SDS011;60566;48.062;9.930;2023-05-29T10:03:29;7.22;;;3.45;;
72388;SDS011;60566;48.062;9.930;2023-05-29T10:05:54;7.40;;;3.55;;
72388;SDS011;60566;48.062;9.930;2023-05-29T10:08:20;8.38;;;4.15;;
72388;SDS011;60566;48.062;9.930;2023-05-29T10:10:46;9.20;;;4.07;;
72388;SDS011;60566;48.062;9.930;2023-05-29T10:13:13;8.77;;;4.03;;
72388;SDS011;60566;48.062;9.930;2023-05-29T10:15:41;7.38;;;3.78;;
72388;SDS011;60566;48.062;9.930;2023-05-29T10:18:10;7.75;;;3.85;;
72388;SDS011;60566;48.062;9.930;2023-05-29T10:20:39;9.45;;;3.88;;
72388;SDS011;60566;48.062;9.930;2023-05-29T10:23:05;7.65;;;3.50;;
72388;SDS011;60566;48.062;9.930;2023-05-29T10:25:32;7.75;;;3.83;;
72388;SDS011;60566;48.062;9.930;2023-05-29T10:27:57;10.05;;;3.60;;
72388;SDS011;60566;48.062;9.930;2023-05-29T10:30:25;10.60;;;4.05;;
72388;SDS011;60566;48.062;9.930;2023-05-29T10:36:07;10.05;;;4.55;;
72388;SDS011;60566;48.062;9.930;2023-05-29T10:38:35;8.00;;;4.00;;
72388;SDS011;60566;48.062;9.930;2023-05-29T10:43:54;8.32;;;3.58;;
72388;SDS011;60566;48.062;9.930;2023-05-29T10:46:19;9.88;;;3.45;;
72388;SDS011;60566;48.062;9.930;2023-05-29T10:48:47;8.35;;;3.30;;
72388;SDS011;60566;48.062;9.930;2023-05-29T10:51:24;6.82;;;3.95;;
72388;SDS011;60566;48.062;9.930;2023-05-29T10:53:52;9.02;;;3.75;;
72388;SDS011;60566;48.062;9.930;2023-05-29T10:56:22;7.60;;;3.70;;
72388;SDS011;60566;48.062;9.930;2023-05-29T10:58:49;8.75;;;3.95;;
72388;SDS011;60566;48.062;9.930;2023-05-29T11:01:17;9.35;;;3.47;;
72388;SDS011;60566;48.062;9.930;2023-05-29T11:03:47;7.65;;;3.17;;
72388;SDS011;60566;48.062;9.930;2023-05-29T11:06:16;10.18;;;3.42;;
72388;SDS011;60566;48.062;9.930;2023-05-29T11:08:44;8.77;;;3.70;;
72388;SDS011;60566;48.062;9.930;2023-05-29T11:11:11;8.85;;;3.90;;
72388;SDS011;60566;48.062;9.930;2023-05-29T11:13:37;8.85;;;4.13;;
72388;SDS011;60566;48.062;9.930;2023-05-29T11:19:04;8.27;;;3.78;;
72388;SDS011;60566;48.062;9.930;2023-05-29T11:21:33;8.73;;;3.60;;
72388;SDS011;60566;48.062;9.930;2023-05-29T11:24:00;7.47;;;3.78;;
72388;SDS011;60566;48.062;9.930;2023-05-29T11:26:27;8.18;;;3.28;;
72388;SDS011;60566;48.062;9.930;2023-05-29T11:28:52;8.52;;;4.07;;
72388;SDS011;60566;48.062;9.930;2023-05-29T11:31:18;8.40;;;3.47;;
72388;SDS011;60566;48.062;9.930;2023-05-29T11:33:47;8.63;;;3.50;;
72388;SDS011;60566;48.062;9.930;2023-05-29T11:36:14;7.45;;;3.42;;
72388;SDS011;60566;48.062;9.930;2023-05-29T11:38:40;6.47;;;3.35;;
72388;SDS011;60566;48.062;9.930;2023-05-29T11:41:05;7.28;;;3.67;;
72388;SDS011;60566;48.062;9.930;2023-05-29T11:43:31;8.30;;;3.20;;
72388;SDS011;60566;48.062;9.930;2023-05-29T11:45:56;6.35;;;3.22;;
72388;SDS011;60566;48.062;9.930;2023-05-29T11:48:22;6.35;;;3.17;;
72388;SDS011;60566;48.062;9.930;2023-05-29T11:50:47;7.07;;;3.47;;
72388;SDS011;60566;48.062;9.930;2023-05-29T11:53:14;6.95;;;3.00;;
72388;SDS011;60566;48.062;9.930;2023-05-29T11:55:39;7.07;;;3.17;;
72388;SDS011;60566;48.062;9.930;2023-05-29T11:58:05;8.13;;;3.22;;
72388;SDS011;60566;48.062;9.930;2023-05-29T12:00:30;8.80;;;3.75;;
72388;SDS011;60566;48.062;9.930;2023-05-29T12:02:57;9.20;;;3.67;;
72388;SDS011;60566;48.062;9.930;2023-05-29T12:05:23;8.48;;;3.33;;
72388;SDS011;60566;48.062;9.930;2023-05-29T12:07:51;6.70;;;3.10;;
72388;SDS011;60566;48.062;9.930;2023-05-29T12:10:19;6.07;;;3.30;;
72388;SDS011;60566;48.062;9.930;2023-05-29T12:15:12;8.13;;;3.30;;
72388;SDS011;60566;48.062;9.930;2023-05-29T12:17:38;14.40;;;3.70;;
72388;SDS011;60566;48.062;9.930;2023-05-29T12:20:04;8.05;;;3.35;;
72388;SDS011;60566;48.062;9.930;2023-05-29T12:22:32;7.93;;;3.00;;
72388;SDS011;60566;48.062;9.930;2023-05-29T12:27:29;8.13;;;3.10;;
72388;SDS011;60566;48.062;9.930;2023-05-29T12:29:59;6.82;;;3.10;;
72388;SDS011;60566;48.062;9.930;2023-05-29T12:32:25;6.30;;;2.63;;
72388;SDS011;60566;48.062;9.930;2023-05-29T12:34:59;6.60;;;2.67;;
72388;SDS011;60566;48.062;9.930;2023-05-29T12:37:25;6.65;;;3.00;;
72388;SDS011;60566;48.062;9.930;2023-05-29T12:42:37;8.65;;;3.08;;
72388;SDS011;60566;48.062;9.930;2023-05-29T12:45:02;6.72;;;3.00;;
72388;SDS011;60566;48.062;9.930;2023-05-29T12:47:28;6.28;;;3.20;;
72388;SDS011;60566;48.062;9.930;2023-05-29T12:49:53;7.35;;;3.20;;
72388;SDS011;60566;48.062;9.930;2023-05-29T12:52:20;7.20;;;2.97;;
72388;SDS011;60566;48.062;9.930;2023-05-29T12:54:46;7.70;;;3.00;;
72388;SDS011;60566;48.062;9.930;2023-05-29T12:57:11;7.10;;;3.15;;
72388;SDS011;60566;48.062;9.930;2023-05-29T12:59:38;7.75;;;3.65;;
72388;SDS011;60566;48.062;9.930;2023-05-29T13:02:03;7.50;;;3.20;;
72388;SDS011;60566;48.062;9.930;2023-05-29T13:04:29;8.18;;;3.55;;
72388;SDS011;60566;48.062;9.930;2023-05-29T13:06:54;6.43;;;3.60;;
72388;SDS011;60566;48.062;9.930;2023-05-29T13:09:20;6.75;;;3.15;;
72388;SDS011;60566;48.062;9.930;2023-05-29T13:11:45;7.78;;;3.30;;
72388;SDS011;60566;48.062;9.930;2023-05-29T13:14:10;6.18;;;3.05;;
72388;SDS011;60566;48.062;9.930;2023-05-29T13:16:37;7.30;;;3.45;;
72388;SDS011;60566;48.062;9.930;2023-05-29T13:19:02;10.00;;;3.38;;
72388;SDS011;60566;48.062;9.930;2023-05-29T13:21:28;7.82;;;3.47;;
72388;SDS011;60566;48.062;9.930;2023-05-29T13:23:53;6.00;;;3.17;;
72388;SDS011;60566;48.062;9.930;2023-05-29T13:26:19;7.60;;;3.15;;
72388;SDS011;60566;48.062;9.930;2023-05-29T13:28:44;7.13;;;2.90;;
72388;SDS011;60566;48.062;9.930;2023-05-29T13:31:10;6.47;;;2.90;;
72388;SDS011;60566;48.062;9.930;2023-05-29T13:33:36;7.75;;;3.05;;
72388;SDS011;60566;48.062;9.930;2023-05-29T13:36:02;8.18;;;3.45;;
72388;SDS011;60566;48.062;9.930;2023-05-29T13:38:27;6.45;;;2.80;;
72388;SDS011;60566;48.062;9.930;2023-05-29T13:40:53;6.50;;;2.58;;
72388;SDS011;60566;48.062;9.930;2023-05-29T13:43:18;6.53;;;3.28;;
72388;SDS011;60566;48.062;9.930;2023-05-29T13:45:44;6.25;;;3.10;;
72388;SDS011;60566;48.062;9.930;2023-05-29T13:48:09;8.77;;;3.03;;
72388;SDS011;60566;48.062;9.930;2023-05-29T13:50:36;5.80;;;3.22;;
72388;SDS011;60566;48.062;9.930;2023-05-29T13:53:01;6.97;;;2.78;;
72388;SDS011;60566;48.062;9.930;2023-05-29T13:55:27;6.25;;;2.80;;
72388;SDS011;60566;48.062;9.930;2023-05-29T13:57:52;6.63;;;2.92;;
72388;SDS011;60566;48.062;9.930;2023-05-29T14:00:18;6.25;;;2.80;;
72388;SDS011;60566;48.062;9.930;2023-05-29T14:02:44;7.32;;;3.00;;
72388;SDS011;60566;48.062;9.930;2023-05-29T14:05:09;7.10;;;3.17;;
72388;SDS011;60566;48.062;9.930;2023-05-29T14:07:36;6.63;;;3.13;;
72388;SDS011;60566;48.062;9.930;2023-05-29T14:10:07;8.27;;;3.13;;
72388;SDS011;60566;48.062;9.930;2023-05-29T14:12:37;5.95;;;3.00;;
72388;SDS011;60566;48.062;9.930;2023-05-29T14:15:03;6.35;;;3.00;;
72388;SDS011;60566;48.062;9.930;2023-05-29T14:17:29;7.00;;;3.08;;
72388;SDS011;60566;48.062;9.930;2023-05-29T14:19:54;7.18;;;2.92;;
72388;SDS011;60566;48.062;9.930;2023-05-29T14:22:19;7.15;;;3.30;;
72388;SDS011;60566;48.062;9.930;2023-05-29T14:24:46;5.90;;;2.75;;
72388;SDS011;60566;48.062;9.930;2023-05-29T14:27:12;5.63;;;2.65;;
72388;SDS011;60566;48.062;9.930;2023-05-29T14:29:37;8.43;;;2.97;;
72388;SDS011;60566;48.062;9.930;2023-05-29T14:32:03;6.80;;;2.80;;
72388;SDS011;60566;48.062;9.930;2023-05-29T14:34:28;5.97;;;2.92;;
72388;SDS011;60566;48.062;9.930;2023-05-29T14:36:54;5.90;;;2.83;;
72388;SDS011;60566;48.062;9.930;2023-05-29T14:39:19;6.57;;;2.80;;
72388;SDS011;60566;48.062;9.930;2023-05-29T14:41:46;6.25;;;3.03;;
72388;SDS011;60566;48.062;9.930;2023-05-29T14:44:13;10.60;;;2.97;;
72388;SDS011;60566;48.062;9.930;2023-05-29T14:46:38;7.10;;;3.33;;
72388;SDS011;60566;48.062;9.930;2023-05-29T14:49:04;7.22;;;3.58;;